createdAt,value
2017-09-11T00:00:33.136Z,16.67
2017-09-11T00:01:41.997Z,16.73
2017-09-11T00:02:50.794Z,16.66
2017-09-11T00:03:59.624Z,16.66
2017-09-11T00:05:08.454Z,16.71
2017-09-11T00:06:17.283Z,16.71
2017-09-11T00:07:26.115Z,16.68
2017-09-11T00:08:34.942Z,16.75
2017-09-11T00:09:43.773Z,16.56
2017-09-11T00:10:52.925Z,16.58
2017-09-11T00:12:01.755Z,16.56
2017-09-11T00:13:10.585Z,16.76
2017-09-11T00:14:19.413Z,16.67
2017-09-11T00:15:28.243Z,16.61
2017-09-11T00:16:37.074Z,16.68
2017-09-11T00:17:45.908Z,16.71
2017-09-11T00:18:54.731Z,16.61
2017-09-11T00:20:03.559Z,16.56
2017-09-11T00:21:12.391Z,16.48
2017-09-11T00:22:21.217Z,16.6
2017-09-11T00:23:30.047Z,16.58
2017-09-11T00:24:38.877Z,16.56
2017-09-11T00:25:47.707Z,16.6
2017-09-11T00:26:56.535Z,16.49
2017-09-11T00:28:05.368Z,16.58
2017-09-11T00:29:14.201Z,16.56
2017-09-11T00:30:23.025Z,16.56
2017-09-11T00:31:31.853Z,16.48
2017-09-11T00:32:40.679Z,16.5
2017-09-11T00:33:49.515Z,16.46
2017-09-11T00:34:58.349Z,16.52
2017-09-11T00:36:07.178Z,16.49
2017-09-11T00:37:16.006Z,16.43
2017-09-11T00:38:24.836Z,16.5
2017-09-11T00:39:33.665Z,16.43
2017-09-11T00:40:42.497Z,16.45
2017-09-11T00:41:51.327Z,16.45
2017-09-11T00:43:00.147Z,16.45
2017-09-11T00:44:08.975Z,16.5
2017-09-11T00:45:17.799Z,16.45
2017-09-11T00:46:26.632Z,16.42
2017-09-11T00:47:35.457Z,16.43
2017-09-11T00:48:44.284Z,16.45
2017-09-11T00:49:53.111Z,16.41
2017-09-11T00:51:01.946Z,16.42
2017-09-11T00:52:10.766Z,16.42
2017-09-11T00:53:19.597Z,16.33
2017-09-11T00:54:28.425Z,16.33
2017-09-11T00:55:37.255Z,16.35
2017-09-11T00:56:46.085Z,16.35
2017-09-11T00:57:54.914Z,16.33
2017-09-11T00:59:03.747Z,16.38
2017-09-11T01:00:12.576Z,16.31
2017-09-11T01:01:21.407Z,16.34
2017-09-11T01:02:30.231Z,16.31
2017-09-11T01:03:39.061Z,16.35
2017-09-11T01:04:47.889Z,16.35
2017-09-11T01:05:56.714Z,16.38
2017-09-11T01:07:05.545Z,16.34
2017-09-11T01:08:14.373Z,16.33
2017-09-11T01:09:23.202Z,16.35
2017-09-11T01:10:32.027Z,16.38
2017-09-11T01:11:40.857Z,16.33
2017-09-11T01:12:49.685Z,16.3
2017-09-11T01:13:58.510Z,16.34
2017-09-11T01:15:07.338Z,16.35
2017-09-11T01:16:16.169Z,16.3
2017-09-11T01:17:25.000Z,16.25
2017-09-11T01:18:33.833Z,16.25
2017-09-11T01:19:42.664Z,16.24
2017-09-11T01:20:51.494Z,16.24
2017-09-11T01:22:00.321Z,16.17
2017-09-11T01:23:09.149Z,16.21
2017-09-11T01:24:17.977Z,16.21
2017-09-11T01:25:26.811Z,16.12
2017-09-11T01:26:35.640Z,16.08
2017-09-11T01:27:44.465Z,16.09
2017-09-11T01:28:53.300Z,16.05
2017-09-11T01:30:02.133Z,16.07
2017-09-11T01:31:10.960Z,16.11
2017-09-11T01:32:19.789Z,16.05
2017-09-11T01:33:28.615Z,16.14
2017-09-11T01:34:37.444Z,16.08
2017-09-11T01:35:46.273Z,16.15
2017-09-11T01:36:55.106Z,16.15
2017-09-11T01:38:03.930Z,16.15
2017-09-11T01:39:12.765Z,16.07
2017-09-11T01:40:21.583Z,16.14
2017-09-11T01:41:30.413Z,16.21
2017-09-11T01:42:39.241Z,16.21
2017-09-11T01:43:48.074Z,16.09
2017-09-11T01:44:56.900Z,16.07
2017-09-11T01:46:05.738Z,16.12
2017-09-11T01:47:14.556Z,16.17
2017-09-11T01:48:23.390Z,16.14
2017-09-11T01:49:32.218Z,16.05
2017-09-11T01:50:41.053Z,16.11
2017-09-11T01:51:49.879Z,16.09
2017-09-11T01:52:58.710Z,16.04
2017-09-11T01:54:07.532Z,15.96
2017-09-11T01:55:16.359Z,16.04
2017-09-11T01:56:25.518Z,16.04
2017-09-11T01:57:34.346Z,15.94
2017-09-11T01:58:43.211Z,16.01
2017-09-11T01:59:52.004Z,16
2017-09-11T02:01:00.830Z,16.05
2017-09-11T02:02:09.656Z,15.94
2017-09-11T02:03:18.490Z,15.96
2017-09-11T02:04:27.316Z,15.94
2017-09-11T02:05:36.137Z,15.94
2017-09-11T02:06:44.966Z,15.93
2017-09-11T02:07:53.792Z,15.9
2017-09-11T02:09:02.623Z,15.86
2017-09-11T02:10:11.452Z,15.9
2017-09-11T02:11:20.282Z,15.9
2017-09-11T02:12:29.106Z,15.93
2017-09-11T02:13:37.932Z,15.9
2017-09-11T02:14:46.763Z,15.84
2017-09-11T02:15:55.593Z,15.8
2017-09-11T02:17:04.418Z,15.8
2017-09-11T02:18:13.248Z,15.84
2017-09-11T02:19:22.073Z,15.78
2017-09-11T02:20:30.901Z,15.86
2017-09-11T02:21:39.731Z,15.84
2017-09-11T02:22:48.881Z,15.8
2017-09-11T02:23:57.708Z,15.78
2017-09-11T02:25:06.537Z,15.74
2017-09-11T02:26:15.365Z,15.74
2017-09-11T02:27:24.192Z,15.74
2017-09-11T02:28:33.022Z,15.74
2017-09-11T02:29:41.849Z,15.69
2017-09-11T02:30:50.676Z,15.69
2017-09-11T02:31:59.507Z,15.71
2017-09-11T02:33:08.331Z,15.8
2017-09-11T02:34:17.162Z,15.74
2017-09-11T02:35:25.988Z,15.68
2017-09-11T02:36:34.814Z,15.68
2017-09-11T02:37:43.637Z,15.71
2017-09-11T02:38:52.471Z,15.72
2017-09-11T02:40:01.298Z,15.68
2017-09-11T02:41:10.124Z,15.68
2017-09-11T02:42:18.958Z,15.67
2017-09-11T02:43:27.789Z,15.67
2017-09-11T02:44:36.615Z,15.67
2017-09-11T02:45:45.443Z,15.62
2017-09-11T02:46:54.268Z,15.64
2017-09-11T02:48:03.099Z,15.59
2017-09-11T02:49:11.931Z,15.6
2017-09-11T02:50:20.758Z,15.65
2017-09-11T02:51:29.583Z,15.67
2017-09-11T02:52:38.415Z,15.67
2017-09-11T02:53:47.236Z,15.6
2017-09-11T02:54:56.068Z,15.56
2017-09-11T02:56:04.902Z,15.5
2017-09-11T02:57:13.730Z,15.59
2017-09-11T02:58:22.556Z,15.59
2017-09-11T02:59:31.380Z,15.6
2017-09-11T03:00:40.211Z,15.64
2017-09-11T03:01:49.038Z,15.57
2017-09-11T03:02:57.869Z,15.51
2017-09-11T03:04:06.699Z,15.65
2017-09-11T03:05:15.532Z,15.62
2017-09-11T03:06:24.360Z,15.53
2017-09-11T03:07:33.185Z,15.59
2017-09-11T03:08:42.009Z,15.62
2017-09-11T03:09:50.833Z,15.59
2017-09-11T03:10:59.665Z,15.62
2017-09-11T03:12:08.494Z,15.59
2017-09-11T03:13:17.321Z,15.59
2017-09-11T03:14:26.149Z,15.51
2017-09-11T03:15:34.973Z,15.59
2017-09-11T03:16:43.804Z,15.51
2017-09-11T03:17:52.633Z,15.49
2017-09-11T03:19:01.461Z,15.51
2017-09-11T03:20:10.289Z,15.46
2017-09-11T03:21:19.117Z,15.41
2017-09-11T03:22:27.943Z,15.5
2017-09-11T03:23:36.767Z,15.44
2017-09-11T03:24:45.601Z,15.5
2017-09-11T03:25:54.424Z,15.49
2017-09-11T03:27:03.251Z,15.46
2017-09-11T03:28:12.723Z,15.44
2017-09-11T03:29:21.552Z,15.47
2017-09-11T03:30:30.384Z,15.43
2017-09-11T03:31:39.211Z,15.44
2017-09-11T03:32:48.039Z,15.47
2017-09-11T03:33:56.861Z,15.47
2017-09-11T03:35:05.690Z,15.43
2017-09-11T03:36:14.511Z,15.41
2017-09-11T03:37:23.343Z,15.46
2017-09-11T03:38:32.171Z,15.38
2017-09-11T03:39:41.002Z,15.44
2017-09-11T03:40:49.825Z,15.5
2017-09-11T03:41:58.649Z,15.44
2017-09-11T03:43:07.479Z,15.36
2017-09-11T03:44:16.307Z,15.38
2017-09-11T03:45:25.141Z,15.34
2017-09-11T03:46:33.962Z,15.32
2017-09-11T03:47:42.789Z,15.35
2017-09-11T03:48:51.612Z,15.35
2017-09-11T03:50:00.439Z,15.39
2017-09-11T03:51:09.267Z,15.36
2017-09-11T03:52:18.098Z,15.35
2017-09-11T03:53:26.922Z,15.38
2017-09-11T03:54:35.745Z,15.39
2017-09-11T03:55:44.578Z,15.36
2017-09-11T03:56:53.407Z,15.36
2017-09-11T03:58:02.559Z,15.38
2017-09-11T03:59:11.390Z,15.41
2017-09-11T04:00:20.217Z,15.38
2017-09-11T04:01:29.093Z,15.36
2017-09-11T04:02:38.250Z,15.36
2017-09-11T04:03:47.076Z,15.32
2017-09-11T04:04:55.909Z,15.36
2017-09-11T04:06:04.734Z,15.39
2017-09-11T04:07:13.564Z,15.43
2017-09-11T04:08:22.387Z,15.34
2017-09-11T04:09:31.214Z,15.38
2017-09-11T04:10:40.048Z,15.36
2017-09-11T04:11:48.872Z,15.25
2017-09-11T04:12:57.702Z,15.38
2017-09-11T04:14:06.529Z,15.39
2017-09-11T04:15:15.356Z,15.39
2017-09-11T04:16:24.180Z,15.35
2017-09-11T04:17:33.013Z,15.29
2017-09-11T04:18:41.840Z,15.31
2017-09-11T04:19:50.672Z,15.35
2017-09-11T04:20:59.492Z,15.32
2017-09-11T04:22:08.317Z,15.36
2017-09-11T04:23:17.149Z,15.34
2017-09-11T04:24:25.980Z,15.36
2017-09-11T04:25:34.802Z,15.35
2017-09-11T04:26:43.632Z,15.28
2017-09-11T04:27:52.459Z,15.38
2017-09-11T04:29:01.285Z,15.34
2017-09-11T04:30:10.116Z,15.38
2017-09-11T04:31:18.948Z,15.31
2017-09-11T04:32:27.770Z,15.38
2017-09-11T04:33:36.923Z,15.32
2017-09-11T04:34:46.108Z,15.31
2017-09-11T04:35:54.936Z,15.31
2017-09-11T04:37:03.766Z,15.34
2017-09-11T04:38:12.590Z,15.38
2017-09-11T04:39:21.744Z,15.32
2017-09-11T04:40:30.570Z,15.34
2017-09-11T04:41:39.394Z,15.32
2017-09-11T04:42:48.223Z,15.28
2017-09-11T04:43:57.052Z,15.35
2017-09-11T04:45:05.877Z,15.25
2017-09-11T04:46:14.708Z,15.31
2017-09-11T04:47:23.541Z,15.29
2017-09-11T04:48:32.368Z,15.29
2017-09-11T04:49:41.195Z,15.29
2017-09-11T04:50:50.024Z,15.23
2017-09-11T04:51:58.855Z,15.31
2017-09-11T04:53:07.682Z,15.19
2017-09-11T04:54:16.512Z,15.29
2017-09-11T04:55:25.341Z,15.21
2017-09-11T04:56:34.170Z,15.27
2017-09-11T04:57:42.997Z,15.23
2017-09-11T04:58:51.819Z,15.23
2017-09-11T05:00:00.650Z,15.35
2017-09-11T05:01:09.478Z,15.29
2017-09-11T05:02:18.308Z,15.29
2017-09-11T05:03:27.453Z,15.31
2017-09-11T05:04:36.283Z,15.2
2017-09-11T05:05:45.106Z,15.19
2017-09-11T05:06:53.933Z,15.2
2017-09-11T05:08:02.762Z,15.19
2017-09-11T05:09:11.585Z,15.31
2017-09-11T05:10:20.411Z,15.23
2017-09-11T05:11:29.235Z,15.27
2017-09-11T05:12:38.067Z,15.27
2017-09-11T05:13:46.895Z,15.29
2017-09-11T05:14:55.726Z,15.17
2017-09-11T05:16:04.549Z,15.23
2017-09-11T05:17:13.373Z,15.14
2017-09-11T05:18:22.200Z,15.27
2017-09-11T05:19:31.029Z,15.25
2017-09-11T05:20:39.861Z,15.23
2017-09-11T05:21:48.688Z,15.28
2017-09-11T05:22:57.514Z,15.29
2017-09-11T05:24:06.343Z,15.25
2017-09-11T05:25:15.171Z,15.19
2017-09-11T05:26:23.998Z,15.17
2017-09-11T05:27:32.824Z,15.23
2017-09-11T05:28:41.657Z,15.17
2017-09-11T05:29:50.485Z,15.2
2017-09-11T05:30:59.309Z,15.25
2017-09-11T05:32:08.465Z,15.23
2017-09-11T05:33:17.294Z,15.31
2017-09-11T05:34:26.123Z,15.23
2017-09-11T05:35:34.949Z,15.28
2017-09-11T05:36:43.775Z,15.29
2017-09-11T05:37:52.600Z,15.38
2017-09-11T05:39:01.434Z,15.38
2017-09-11T05:40:10.260Z,15.35
2017-09-11T05:41:19.089Z,15.32
2017-09-11T05:42:27.915Z,15.44
2017-09-11T05:43:36.743Z,15.39
2017-09-11T05:44:45.568Z,15.35
2017-09-11T05:45:54.399Z,15.39
2017-09-11T05:47:03.227Z,15.43
2017-09-11T05:48:12.051Z,15.39
2017-09-11T05:49:20.882Z,15.47
2017-09-11T05:50:29.709Z,15.49
2017-09-11T05:51:38.861Z,15.46
2017-09-11T05:52:47.690Z,15.59
2017-09-11T05:53:56.515Z,15.62
2017-09-11T05:55:05.349Z,15.56
2017-09-11T05:56:14.176Z,15.69
2017-09-11T05:57:23.004Z,15.67
2017-09-11T05:58:31.828Z,15.69
2017-09-11T05:59:40.662Z,15.67
2017-09-11T06:00:49.490Z,15.69
2017-09-11T06:01:58.320Z,15.69
2017-09-11T06:03:07.147Z,15.76
2017-09-11T06:04:16.293Z,15.72
2017-09-11T06:05:25.121Z,15.82
2017-09-11T06:06:33.948Z,15.87
2017-09-11T06:07:42.782Z,15.82
2017-09-11T06:08:51.607Z,15.86
2017-09-11T06:10:00.440Z,15.93
2017-09-11T06:11:09.261Z,15.97
2017-09-11T06:12:18.088Z,15.94
2017-09-11T06:13:26.922Z,15.97
2017-09-11T06:14:35.754Z,16.02
2017-09-11T06:15:44.582Z,16.02
2017-09-11T06:16:53.407Z,16.01
2017-09-11T06:18:02.236Z,16
2017-09-11T06:19:11.065Z,16.07
2017-09-11T06:20:19.897Z,16.12
2017-09-11T06:21:28.730Z,16.09
2017-09-11T06:22:37.556Z,16.11
2017-09-11T06:23:46.384Z,16.15
2017-09-11T06:24:55.214Z,16.14
2017-09-11T06:26:04.044Z,16.23
2017-09-11T06:27:12.873Z,16.17
2017-09-11T06:28:21.703Z,16.24
2017-09-11T06:29:30.530Z,16.2
2017-09-11T06:30:39.356Z,16.27
2017-09-11T06:31:48.186Z,16.3
2017-09-11T06:32:57.012Z,16.35
2017-09-11T06:34:05.842Z,16.42
2017-09-11T06:35:14.671Z,16.35
2017-09-11T06:36:23.498Z,16.48
2017-09-11T06:37:32.334Z,16.53
2017-09-11T06:38:41.161Z,16.57
2017-09-11T06:39:49.989Z,16.49
2017-09-11T06:40:58.815Z,16.58
2017-09-11T06:42:07.641Z,16.53
2017-09-11T06:43:16.467Z,16.6
2017-09-11T06:44:25.299Z,16.75
2017-09-11T06:45:34.128Z,16.68
2017-09-11T06:46:42.954Z,16.67
2017-09-11T06:47:51.780Z,16.76
2017-09-11T06:49:00.601Z,16.78
2017-09-11T06:50:09.434Z,16.82
2017-09-11T06:51:18.263Z,16.75
2017-09-11T06:52:27.090Z,16.78
2017-09-11T06:53:35.921Z,16.81
2017-09-11T06:54:44.750Z,16.89
2017-09-11T06:55:53.577Z,16.86
2017-09-11T06:57:02.409Z,17
2017-09-11T06:58:11.241Z,16.94
2017-09-11T06:59:20.065Z,16.97
2017-09-11T07:00:28.889Z,16.97
2017-09-11T07:01:38.040Z,17.01
2017-09-11T07:02:46.873Z,17.01
2017-09-11T07:03:55.740Z,17.07
2017-09-11T07:05:04.529Z,17.08
2017-09-11T07:06:13.359Z,17.06
2017-09-11T07:07:22.184Z,16.97
2017-09-11T07:08:31.013Z,17
2017-09-11T07:09:39.844Z,17
2017-09-11T07:10:48.678Z,17.07
2017-09-11T07:11:57.510Z,17.11
2017-09-11T07:13:06.337Z,16.98
2017-09-11T07:14:15.167Z,17.11
2017-09-11T07:15:23.998Z,17.07
2017-09-11T07:16:32.829Z,17.04
2017-09-11T07:17:41.973Z,17.08
2017-09-11T07:18:50.805Z,17.07
2017-09-11T07:19:59.640Z,17
2017-09-11T07:21:08.464Z,16.94
2017-09-11T07:22:17.298Z,17.07
2017-09-11T07:23:26.126Z,17.07
2017-09-11T07:24:34.962Z,17.12
2017-09-11T07:25:44.115Z,17.15
2017-09-11T07:26:52.951Z,17.11
2017-09-11T07:28:01.777Z,17.15
2017-09-11T07:29:10.607Z,17.16
2017-09-11T07:30:19.442Z,17.19
2017-09-11T07:31:28.275Z,17.16
2017-09-11T07:32:37.110Z,17.26
2017-09-11T07:33:45.939Z,17.19
2017-09-11T07:34:54.768Z,17.23
2017-09-11T07:36:03.602Z,17.26
2017-09-11T07:37:12.431Z,17.19
2017-09-11T07:38:21.254Z,17.21
2017-09-11T07:39:30.086Z,17.33
2017-09-11T07:40:38.921Z,17.34
2017-09-11T07:41:47.750Z,17.41
2017-09-11T07:42:56.579Z,17.4
2017-09-11T07:44:05.405Z,17.4
2017-09-11T07:45:14.237Z,17.48
2017-09-11T07:46:23.066Z,17.46
2017-09-11T07:47:31.899Z,17.46
2017-09-11T07:48:40.723Z,17.54
2017-09-11T07:49:49.877Z,17.48
2017-09-11T07:50:58.709Z,17.48
2017-09-11T07:52:07.540Z,17.52
2017-09-11T07:53:16.372Z,17.49
2017-09-11T07:54:25.197Z,17.58
2017-09-11T07:55:34.024Z,17.56
2017-09-11T07:56:42.856Z,17.64
2017-09-11T07:57:51.691Z,17.72
2017-09-11T07:59:00.520Z,17.58
2017-09-11T08:00:09.350Z,17.71
2017-09-11T08:01:18.178Z,17.78
2017-09-11T08:02:27.006Z,17.72
2017-09-11T08:03:35.839Z,17.78
2017-09-11T08:04:44.671Z,17.75
2017-09-11T08:05:53.825Z,17.79
2017-09-11T08:07:02.653Z,17.79
2017-09-11T08:08:11.482Z,17.86
2017-09-11T08:09:20.315Z,17.87
2017-09-11T08:10:29.146Z,17.81
2017-09-11T08:11:37.978Z,17.93
2017-09-11T08:12:46.803Z,17.93
2017-09-11T08:13:55.629Z,18
2017-09-11T08:15:04.459Z,18.05
2017-09-11T08:16:13.288Z,18.02
2017-09-11T08:17:22.121Z,18.03
2017-09-11T08:18:30.949Z,18.07
2017-09-11T08:19:39.778Z,18.08
2017-09-11T08:20:48.607Z,18.07
2017-09-11T08:21:57.439Z,18.18
2017-09-11T08:23:06.269Z,18.14
2017-09-11T08:24:15.095Z,18.14
2017-09-11T08:25:23.925Z,18.21
2017-09-11T08:26:32.754Z,18.25
2017-09-11T08:27:41.587Z,18.27
2017-09-11T08:28:50.411Z,18.23
2017-09-11T08:29:59.243Z,18.27
2017-09-11T08:31:08.074Z,18.41
2017-09-11T08:32:16.908Z,18.35
2017-09-11T08:33:25.733Z,18.32
2017-09-11T08:34:34.564Z,18.27
2017-09-11T08:35:43.396Z,18.35
2017-09-11T08:36:52.224Z,18.44
2017-09-11T08:38:01.055Z,18.47
2017-09-11T08:39:09.880Z,18.39
2017-09-11T08:40:18.716Z,18.39
2017-09-11T08:41:27.544Z,18.41
2017-09-11T08:42:36.375Z,18.37
2017-09-11T08:43:45.203Z,18.44
2017-09-11T08:44:54.035Z,18.35
2017-09-11T08:46:02.862Z,18.44
2017-09-11T08:47:11.696Z,18.45
2017-09-11T08:48:20.528Z,18.42
2017-09-11T08:49:29.355Z,18.39
2017-09-11T08:50:38.184Z,18.47
2017-09-11T08:51:47.016Z,18.47
2017-09-11T08:52:55.846Z,18.57
2017-09-11T08:54:04.680Z,18.55
2017-09-11T08:55:13.510Z,18.55
2017-09-11T08:56:22.341Z,18.55
2017-09-11T08:57:31.489Z,18.57
2017-09-11T08:58:40.321Z,18.54
2017-09-11T08:59:49.151Z,18.55
2017-09-11T09:00:57.983Z,18.58
2017-09-11T09:02:06.816Z,18.51
2017-09-11T09:03:15.642Z,18.58
2017-09-11T09:04:24.474Z,18.62
2017-09-11T09:05:33.304Z,18.57
2017-09-11T09:06:42.131Z,18.67
2017-09-11T09:07:50.958Z,18.62
2017-09-11T09:08:59.790Z,18.6
2017-09-11T09:10:08.618Z,18.6
2017-09-11T09:11:17.445Z,18.62
2017-09-11T09:12:26.277Z,18.66
2017-09-11T09:13:35.106Z,18.73
2017-09-11T09:14:43.941Z,18.6
2017-09-11T09:15:52.774Z,18.6
2017-09-11T09:17:01.607Z,18.72
2017-09-11T09:18:10.436Z,18.7
2017-09-11T09:19:19.264Z,18.69
2017-09-11T09:20:28.094Z,18.75
2017-09-11T09:21:36.926Z,18.76
2017-09-11T09:22:45.762Z,18.75
2017-09-11T09:23:54.588Z,18.76
2017-09-11T09:25:03.423Z,18.8
2017-09-11T09:26:12.252Z,18.84
2017-09-11T09:27:21.089Z,18.78
2017-09-11T09:28:29.917Z,18.84
2017-09-11T09:29:38.747Z,18.8
2017-09-11T09:30:47.576Z,18.73
2017-09-11T09:31:56.409Z,18.87
2017-09-11T09:33:05.242Z,18.76
2017-09-11T09:34:14.072Z,18.82
2017-09-11T09:35:22.904Z,18.81
2017-09-11T09:36:31.734Z,18.94
2017-09-11T09:37:40.567Z,18.92
2017-09-11T09:38:49.393Z,18.87
2017-09-11T09:39:58.227Z,18.88
2017-09-11T09:41:07.061Z,18.91
2017-09-11T09:42:15.892Z,18.98
2017-09-11T09:43:24.725Z,18.91
2017-09-11T09:44:33.559Z,18.91
2017-09-11T09:45:42.389Z,18.94
2017-09-11T09:46:51.217Z,19.02
2017-09-11T09:48:00.053Z,19.02
2017-09-11T09:49:08.883Z,19.02
2017-09-11T09:50:17.712Z,19.04
2017-09-11T09:51:26.542Z,19.06
2017-09-11T09:52:35.374Z,19.02
2017-09-11T09:53:44.203Z,19.08
2017-09-11T09:54:53.033Z,19.13
2017-09-11T09:56:01.862Z,19.13
2017-09-11T09:57:10.697Z,19.13
2017-09-11T09:58:19.522Z,19.23
2017-09-11T09:59:28.348Z,19.22
2017-09-11T10:00:37.180Z,19.25
2017-09-11T10:01:46.015Z,19.25
2017-09-11T10:02:54.841Z,19.19
2017-09-11T10:04:03.669Z,19.21
2017-09-11T10:05:12.501Z,19.25
2017-09-11T10:06:21.333Z,19.25
2017-09-11T10:07:30.166Z,19.25
2017-09-11T10:08:39.004Z,19.31
2017-09-11T10:09:47.828Z,19.29
2017-09-11T10:10:56.658Z,19.33
2017-09-11T10:12:05.490Z,19.36
2017-09-11T10:13:14.322Z,19.4
2017-09-11T10:14:23.481Z,19.44
2017-09-11T10:15:32.309Z,19.48
2017-09-11T10:16:41.141Z,19.56
2017-09-11T10:17:49.980Z,19.55
2017-09-11T10:18:58.809Z,19.61
2017-09-11T10:20:07.641Z,19.63
2017-09-11T10:21:16.469Z,19.68
2017-09-11T10:22:25.306Z,19.65
2017-09-11T10:23:34.136Z,19.62
2017-09-11T10:24:43.286Z,19.69
2017-09-11T10:25:52.119Z,19.63
2017-09-11T10:27:00.949Z,19.68
2017-09-11T10:28:09.777Z,19.61
2017-09-11T10:29:18.610Z,19.69
2017-09-11T10:30:27.439Z,19.62
2017-09-11T10:31:36.271Z,19.73
2017-09-11T10:32:45.108Z,19.78
2017-09-11T10:33:53.936Z,19.76
2017-09-11T10:35:02.769Z,19.73
2017-09-11T10:36:11.599Z,19.88
2017-09-11T10:37:20.433Z,19.92
2017-09-11T10:38:29.262Z,19.95
2017-09-11T10:39:38.102Z,19.99
2017-09-11T10:40:46.933Z,20.01
2017-09-11T10:41:55.765Z,19.96
2017-09-11T10:43:04.600Z,19.96
2017-09-11T10:44:13.429Z,20.05
2017-09-11T10:45:22.263Z,20.1
2017-09-11T10:46:31.094Z,20.16
2017-09-11T10:47:39.929Z,20.13
2017-09-11T10:48:48.759Z,20.14
2017-09-11T10:49:57.594Z,20.28
2017-09-11T10:51:06.428Z,20.29
2017-09-11T10:52:15.585Z,20.31
2017-09-11T10:53:24.738Z,20.35
2017-09-11T10:54:33.568Z,20.32
2017-09-11T10:55:42.399Z,20.29
2017-09-11T10:56:51.233Z,20.28
2017-09-11T10:58:00.098Z,20.29
2017-09-11T10:59:08.900Z,20.33
2017-09-11T11:00:17.726Z,20.33
2017-09-11T11:01:26.562Z,20.36
2017-09-11T11:02:35.392Z,20.36
2017-09-11T11:03:44.223Z,20.35
2017-09-11T11:04:53.056Z,20.39
2017-09-11T11:06:01.886Z,20.42
2017-09-11T11:07:10.721Z,20.47
2017-09-11T11:08:19.557Z,20.5
2017-09-11T11:09:28.393Z,20.52
2017-09-11T11:10:37.225Z,20.58
2017-09-11T11:11:46.055Z,20.58
2017-09-11T11:12:54.885Z,20.69
2017-09-11T11:14:03.723Z,20.72
2017-09-11T11:15:12.562Z,20.69
2017-09-11T11:16:21.390Z,20.72
2017-09-11T11:17:30.218Z,20.69
2017-09-11T11:18:39.052Z,20.72
2017-09-11T11:19:48.207Z,20.72
2017-09-11T11:20:57.042Z,20.76
2017-09-11T11:22:05.872Z,20.76
2017-09-11T11:23:14.699Z,20.79
2017-09-11T11:24:23.523Z,20.73
2017-09-11T11:25:32.360Z,20.88
2017-09-11T11:26:41.190Z,20.84
2017-09-11T11:27:50.021Z,20.79
2017-09-11T11:28:58.854Z,20.85
2017-09-11T11:30:07.684Z,20.85
2017-09-11T11:31:16.508Z,20.8
2017-09-11T11:32:25.674Z,20.89
2017-09-11T11:33:34.503Z,20.82
2017-09-11T11:34:43.338Z,20.85
2017-09-11T11:35:52.166Z,20.85
2017-09-11T11:37:00.999Z,20.91
2017-09-11T11:38:09.829Z,20.92
2017-09-11T11:39:18.663Z,20.95
2017-09-11T11:40:27.491Z,21.03
2017-09-11T11:41:36.328Z,21.01
2017-09-11T11:42:45.161Z,20.99
2017-09-11T11:43:53.991Z,20.92
2017-09-11T11:45:02.825Z,20.92
2017-09-11T11:46:11.661Z,20.88
2017-09-11T11:47:20.491Z,20.89
2017-09-11T11:48:29.323Z,20.87
2017-09-11T11:49:38.153Z,20.84
2017-09-11T11:50:46.984Z,20.84
2017-09-11T11:51:55.816Z,20.85
2017-09-11T11:53:04.650Z,20.8
2017-09-11T11:54:13.482Z,20.84
2017-09-11T11:55:22.312Z,20.79
2017-09-11T11:56:31.147Z,20.84
2017-09-11T11:57:39.976Z,20.79
2017-09-11T11:58:48.807Z,20.77
2017-09-11T11:59:57.642Z,20.73
2017-09-11T12:01:06.472Z,20.72
2017-09-11T12:02:15.305Z,20.72
2017-09-11T12:03:24.137Z,20.7
2017-09-11T12:04:32.973Z,20.69
2017-09-11T12:05:41.802Z,20.76
2017-09-11T12:06:50.635Z,20.76
2017-09-11T12:07:59.473Z,20.72
2017-09-11T12:09:08.301Z,20.7
2017-09-11T12:10:17.457Z,20.76
2017-09-11T12:11:26.288Z,20.67
2017-09-11T12:12:35.119Z,20.67
2017-09-11T12:13:43.945Z,20.67
2017-09-11T12:14:52.780Z,20.69
2017-09-11T12:16:01.616Z,20.72
2017-09-11T12:17:10.449Z,20.7
2017-09-11T12:18:19.279Z,20.73
2017-09-11T12:19:28.434Z,20.69
2017-09-11T12:20:37.273Z,20.7
2017-09-11T12:21:46.109Z,20.73
2017-09-11T12:22:54.937Z,20.69
2017-09-11T12:24:03.768Z,20.72
2017-09-11T12:25:12.604Z,20.72
2017-09-11T12:26:21.434Z,20.72
2017-09-11T12:27:30.276Z,20.59
2017-09-11T12:28:39.106Z,20.69
2017-09-11T12:29:47.943Z,20.62
2017-09-11T12:30:56.781Z,20.62
2017-09-11T12:32:05.935Z,20.59
2017-09-11T12:33:14.770Z,20.62
2017-09-11T12:34:23.601Z,20.54
2017-09-11T12:35:32.429Z,20.52
2017-09-11T12:36:41.267Z,20.51
2017-09-11T12:37:50.109Z,20.47
2017-09-11T12:38:58.933Z,20.5
2017-09-11T12:40:07.763Z,20.5
2017-09-11T12:41:16.590Z,20.51
2017-09-11T12:42:25.426Z,20.51
2017-09-11T12:43:34.260Z,20.51
2017-09-11T12:44:43.089Z,20.5
2017-09-11T12:45:51.917Z,20.42
2017-09-11T12:47:01.081Z,20.47
2017-09-11T12:48:09.909Z,20.41
2017-09-11T12:49:18.739Z,20.43
2017-09-11T12:50:27.573Z,20.43
2017-09-11T12:51:36.402Z,20.48
2017-09-11T12:52:45.233Z,20.47
2017-09-11T12:53:54.066Z,20.41
2017-09-11T12:55:02.899Z,20.36
2017-09-11T12:56:11.729Z,20.41
2017-09-11T12:57:20.562Z,20.33
2017-09-11T12:58:29.395Z,20.39
2017-09-11T12:59:38.231Z,20.33
2017-09-11T13:00:47.065Z,20.35
2017-09-11T13:01:55.890Z,20.31
2017-09-11T13:03:04.720Z,20.33
2017-09-11T13:04:13.586Z,20.11
2017-09-11T13:05:22.387Z,20.1
2017-09-11T13:06:31.218Z,19.98
2017-09-11T13:07:40.050Z,19.92
2017-09-11T13:08:48.883Z,19.74
2017-09-11T13:09:57.708Z,19.76
2017-09-11T13:11:06.541Z,19.74
2017-09-11T13:12:15.378Z,19.68
2017-09-11T13:13:24.209Z,19.76
2017-09-11T13:14:33.036Z,19.61
2017-09-11T13:15:41.871Z,19.65
2017-09-11T13:16:51.026Z,19.69
2017-09-11T13:17:59.852Z,19.74
2017-09-11T13:19:08.686Z,19.8
2017-09-11T13:20:17.521Z,19.78
2017-09-11T13:21:26.346Z,19.81
2017-09-11T13:22:35.180Z,19.86
2017-09-11T13:23:44.010Z,19.91
2017-09-11T13:24:52.847Z,19.87
2017-09-11T13:26:01.683Z,19.91
2017-09-11T13:27:10.511Z,19.84
2017-09-11T13:28:19.343Z,19.86
2017-09-11T13:29:28.180Z,19.87
2017-09-11T13:30:37.005Z,19.86
2017-09-11T13:31:45.843Z,19.96
2017-09-11T13:32:54.679Z,20.01
2017-09-11T13:34:03.509Z,19.98
2017-09-11T13:35:12.339Z,20.05
2017-09-11T13:36:21.492Z,20.05
2017-09-11T13:37:30.323Z,20.1
2017-09-11T13:38:39.153Z,20.1
2017-09-11T13:39:47.990Z,20.02
2017-09-11T13:40:56.816Z,20.08
2017-09-11T13:42:05.649Z,20.17
2017-09-11T13:43:14.483Z,20.17
2017-09-11T13:44:23.316Z,20.16
2017-09-11T13:45:32.149Z,20.28
2017-09-11T13:46:40.981Z,20.35
2017-09-11T13:47:49.818Z,20.32
2017-09-11T13:48:58.648Z,20.43
2017-09-11T13:50:07.482Z,20.47
2017-09-11T13:51:16.318Z,20.5
2017-09-11T13:52:25.150Z,20.51
2017-09-11T13:53:33.983Z,20.54
2017-09-11T13:54:42.811Z,20.61
2017-09-11T13:55:51.644Z,20.47
2017-09-11T13:57:00.475Z,20.47
2017-09-11T13:58:09.311Z,20.5
2017-09-11T13:59:18.139Z,20.47
2017-09-11T14:00:26.971Z,20.33
2017-09-11T14:01:35.808Z,20.28
2017-09-11T14:02:44.638Z,20.29
2017-09-11T14:03:53.470Z,20.24
2017-09-11T14:05:02.300Z,20.28
2017-09-11T14:06:11.131Z,20.24
2017-09-11T14:07:20.295Z,20.32
2017-09-11T14:08:29.123Z,20.29
2017-09-11T14:09:37.959Z,20.33
2017-09-11T14:10:46.789Z,20.38
2017-09-11T14:11:55.621Z,20.38
2017-09-11T14:13:04.451Z,20.41
2017-09-11T14:14:13.283Z,20.32
2017-09-11T14:15:22.119Z,20.29
2017-09-11T14:16:30.946Z,20.31
2017-09-11T14:17:39.780Z,20.31
2017-09-11T14:18:48.613Z,20.26
2017-09-11T14:19:57.446Z,20.31
2017-09-11T14:21:06.278Z,20.21
2017-09-11T14:22:15.111Z,20.24
2017-09-11T14:23:23.941Z,20.17
2017-09-11T14:24:32.769Z,20.14
2017-09-11T14:25:41.604Z,20.16
2017-09-11T14:26:50.435Z,20.16
2017-09-11T14:27:59.265Z,20.16
2017-09-11T14:29:08.096Z,20.2
2017-09-11T14:30:16.930Z,20.11
2017-09-11T14:31:25.766Z,20.18
2017-09-11T14:32:34.593Z,20.14
2017-09-11T14:33:43.425Z,20.1
2017-09-11T14:34:52.261Z,20.13
2017-09-11T14:36:01.091Z,20.06
2017-09-11T14:37:09.921Z,20.11
2017-09-11T14:38:18.755Z,20.03
2017-09-11T14:39:27.583Z,20.06
2017-09-11T14:40:36.415Z,20.05
2017-09-11T14:41:45.249Z,20.11
2017-09-11T14:42:54.078Z,20.06
2017-09-11T14:44:02.914Z,20.11
2017-09-11T14:45:12.064Z,20.06
2017-09-11T14:46:20.890Z,20.03
2017-09-11T14:47:29.726Z,20.06
2017-09-11T14:48:38.556Z,20.11
2017-09-11T14:49:47.388Z,20.06